createdAt,value
2023-05-22T00:00:39.376Z,19.30
2023-05-22T00:03:08.387Z,19.16
2023-05-22T00:05:38.833Z,19.27
2023-05-22T00:08:10.736Z,19.23
2023-05-22T00:10:38.491Z,19.20
2023-05-22T00:13:06.216Z,19.14
2023-05-22T00:15:35.418Z,19.19
2023-05-22T00:18:03.955Z,19.19
2023-05-22T00:20:31.537Z,19.20
2023-05-22T00:23:01.132Z,19.12
2023-05-22T00:25:28.723Z,19.02
2023-05-22T00:27:56.299Z,19.12
2023-05-22T00:30:23.869Z,19.12
2023-05-22T00:32:52.778Z,19.08
2023-05-22T00:35:20.535Z,19.05
2023-05-22T00:37:48.049Z,19.03
2023-05-22T00:40:16.627Z,19.04
2023-05-22T00:42:44.404Z,18.97
2023-05-22T00:45:12.696Z,18.94
2023-05-22T00:47:40.477Z,18.91
2023-05-22T00:50:11.396Z,18.89
2023-05-22T00:52:41.272Z,18.91
2023-05-22T00:55:10.489Z,18.94
2023-05-22T00:57:40.252Z,18.94
2023-05-22T01:00:10.884Z,18.87
2023-05-22T01:02:38.688Z,18.78
2023-05-22T01:05:07.855Z,18.64
2023-05-22T01:07:37.648Z,18.57
2023-05-22T01:10:07.107Z,18.41
2023-05-22T01:12:39.742Z,18.29
2023-05-22T01:15:13.980Z,18.04
2023-05-22T01:17:48.174Z,17.58
2023-05-22T01:20:22.379Z,17.47
2023-05-22T01:23:25.374Z,17.40
2023-05-22T01:26:04.770Z,17.27
2023-05-22T01:28:43.652Z,17.46
2023-05-22T01:31:14.595Z,17.29
2023-05-22T01:33:43.621Z,17.23
2023-05-22T01:36:12.692Z,17.22
2023-05-22T01:38:40.271Z,17.18
2023-05-22T01:41:07.840Z,17.08
2023-05-22T01:43:38.443Z,16.99
2023-05-22T01:46:06.291Z,16.93
2023-05-22T01:48:36.297Z,16.95
2023-05-22T01:51:06.721Z,16.86
2023-05-22T01:53:36.512Z,16.78
2023-05-22T01:56:06.204Z,16.87
2023-05-22T01:58:40.018Z,16.93
2023-05-22T02:01:09.240Z,16.92
2023-05-22T02:03:40.923Z,16.83
2023-05-22T02:06:10.164Z,16.76
2023-05-22T02:08:38.726Z,16.83
2023-05-22T02:11:06.689Z,16.90
2023-05-22T02:13:34.637Z,16.82
2023-05-22T02:16:03.898Z,16.53
2023-05-22T02:18:31.725Z,16.21
2023-05-22T02:21:02.703Z,15.98
2023-05-22T02:23:30.269Z,15.92
2023-05-22T02:25:57.917Z,15.92
2023-05-22T02:28:25.535Z,15.88
2023-05-22T02:30:53.134Z,15.80
2023-05-22T02:33:20.724Z,15.85
2023-05-22T02:35:48.278Z,15.96
2023-05-22T02:38:17.138Z,16.01
2023-05-22T02:40:44.792Z,16.06
2023-05-22T02:43:12.343Z,16.12
2023-05-22T02:45:39.828Z,16.07
2023-05-22T02:48:07.521Z,15.94
2023-05-22T02:50:35.055Z,15.79
2023-05-22T02:53:02.542Z,15.76
2023-05-22T02:55:31.442Z,15.75
2023-05-22T02:57:58.946Z,15.75
2023-05-22T03:00:26.524Z,15.59
2023-05-22T03:02:54.163Z,15.45
2023-05-22T03:05:21.840Z,15.52
2023-05-22T03:07:49.908Z,15.65
2023-05-22T03:10:17.401Z,15.75
2023-05-22T03:12:46.267Z,15.98
2023-05-22T03:15:13.764Z,16.10
2023-05-22T03:17:41.373Z,16.05
2023-05-22T03:20:10.135Z,16.21
2023-05-22T03:22:37.921Z,16.09
2023-05-22T03:25:09.273Z,16.13
2023-05-22T03:27:36.993Z,16.18
2023-05-22T03:30:07.338Z,16.15
2023-05-22T03:32:37.323Z,16.13
2023-05-22T03:35:06.097Z,16.38
2023-05-22T03:37:33.826Z,16.56
2023-05-22T03:40:01.349Z,16.72
2023-05-22T03:42:28.852Z,16.89
2023-05-22T03:44:56.354Z,16.94
2023-05-22T03:47:25.232Z,16.94
2023-05-22T03:49:52.760Z,17.03
2023-05-22T03:52:20.398Z,17.03
2023-05-22T03:54:47.970Z,17.03
2023-05-22T03:57:16.316Z,17.07
2023-05-22T03:59:43.791Z,17.11
2023-05-22T04:02:12.872Z,17.14
2023-05-22T04:04:41.875Z,17.13
2023-05-22T04:07:09.445Z,17.16
2023-05-22T04:09:36.996Z,17.26
2023-05-22T04:12:05.145Z,17.33
2023-05-22T04:14:32.772Z,17.31
2023-05-22T04:17:00.478Z,17.31
2023-05-22T04:19:29.948Z,17.25
2023-05-22T04:21:59.330Z,17.32
2023-05-22T04:24:27.537Z,17.35
2023-05-22T04:26:55.068Z,17.47
2023-05-22T04:29:22.777Z,17.41
2023-05-22T04:31:50.369Z,17.52
2023-05-22T04:34:18.493Z,17.50
2023-05-22T04:36:46.974Z,17.52
2023-05-22T04:39:15.970Z,17.50
2023-05-22T04:41:43.447Z,17.53
2023-05-22T04:44:10.958Z,17.56
2023-05-22T04:46:38.634Z,17.60
2023-05-22T04:49:06.203Z,17.62
2023-05-22T04:51:36.008Z,17.62
2023-05-22T04:54:03.565Z,17.70
2023-05-22T04:56:36.768Z,17.74
2023-05-22T04:59:08.984Z,17.81
2023-05-22T05:01:37.863Z,17.74
2023-05-22T05:04:05.978Z,17.86
2023-05-22T05:06:34.662Z,17.86
2023-05-22T05:09:02.226Z,17.95
2023-05-22T05:11:29.835Z,18.01
2023-05-22T05:13:58.655Z,18.01
2023-05-22T05:16:26.355Z,18.08
2023-05-22T05:18:55.569Z,18.03
2023-05-22T05:21:27.706Z,18.01
2023-05-22T05:23:55.291Z,18.00
2023-05-22T05:26:24.045Z,18.10
2023-05-22T05:28:51.623Z,18.11
2023-05-22T05:31:20.872Z,18.22
2023-05-22T05:33:48.880Z,18.29
2023-05-22T05:36:17.071Z,18.33
2023-05-22T05:38:44.574Z,18.35
2023-05-22T05:41:12.088Z,18.41
2023-05-22T05:43:39.609Z,18.44
2023-05-22T05:46:07.505Z,18.56
2023-05-22T05:48:36.436Z,18.59
2023-05-22T05:51:04.985Z,18.66
2023-05-22T05:53:32.792Z,18.75
2023-05-22T05:56:00.332Z,18.82
2023-05-22T05:58:27.851Z,18.94
2023-05-22T06:00:55.457Z,18.97
2023-05-22T06:03:25.508Z,19.05
2023-05-22T06:05:54.648Z,19.11
2023-05-22T06:08:22.531Z,19.16
2023-05-22T06:10:50.064Z,19.22
2023-05-22T06:13:17.562Z,19.33
2023-05-22T06:15:45.105Z,19.40
2023-05-22T06:18:13.629Z,19.45
2023-05-22T06:20:41.431Z,19.53
2023-05-22T06:23:11.004Z,19.57
2023-05-22T06:25:39.785Z,19.73
2023-05-22T06:28:07.348Z,19.79
2023-05-22T06:30:40.135Z,19.87
2023-05-22T06:33:08.089Z,19.88
2023-05-22T06:35:35.739Z,19.99
2023-05-22T06:38:03.270Z,20.12
2023-05-22T06:40:32.196Z,20.15
2023-05-22T06:42:59.833Z,20.20
2023-05-22T06:45:27.355Z,20.24
2023-05-22T06:47:55.475Z,20.37
2023-05-22T06:50:23.232Z,20.46
2023-05-22T06:52:50.825Z,20.51
2023-05-22T06:55:18.375Z,20.59
2023-05-22T06:57:47.206Z,20.68
2023-05-22T07:00:15.467Z,20.74
2023-05-22T07:02:43.181Z,20.73
2023-05-22T07:05:10.736Z,20.82
2023-05-22T07:07:38.302Z,20.91
2023-05-22T07:10:07.083Z,21.00
2023-05-22T07:12:34.679Z,21.03
2023-05-22T07:15:03.616Z,21.10
2023-05-22T07:17:31.750Z,21.12
2023-05-22T07:19:59.269Z,21.23
2023-05-22T07:22:26.986Z,21.37
2023-05-22T07:24:54.508Z,21.27
2023-05-22T07:27:22.018Z,21.31
2023-05-22T07:29:49.850Z,21.48
2023-05-22T07:32:18.724Z,21.54
2023-05-22T07:34:46.256Z,21.67
2023-05-22T07:37:14.759Z,21.75
2023-05-22T07:39:42.272Z,21.76
2023-05-22T07:42:10.670Z,21.73
2023-05-22T07:44:38.232Z,21.63
2023-05-22T07:47:06.409Z,21.79
2023-05-22T07:49:35.338Z,21.95
2023-05-22T07:52:02.910Z,21.98
2023-05-22T07:54:30.536Z,22.01
2023-05-22T07:56:58.073Z,22.01
2023-05-22T07:59:25.910Z,22.15
2023-05-22T08:01:53.739Z,22.21
2023-05-22T08:04:21.759Z,22.26
2023-05-22T08:06:50.803Z,22.29
2023-05-22T08:09:18.690Z,22.35
2023-05-22T08:11:46.240Z,22.40
2023-05-22T08:14:13.751Z,22.49
2023-05-22T08:16:41.310Z,22.55
2023-05-22T08:19:09.314Z,22.60
2023-05-22T08:21:37.467Z,22.74
2023-05-22T08:24:07.032Z,22.90
2023-05-22T08:26:34.682Z,22.95
2023-05-22T08:29:02.534Z,22.99
2023-05-22T08:31:30.249Z,23.12
2023-05-22T08:34:02.489Z,23.21
2023-05-22T08:36:31.393Z,23.21
2023-05-22T08:38:58.920Z,23.19
2023-05-22T08:41:27.984Z,23.34
2023-05-22T08:43:55.516Z,23.25
2023-05-22T08:46:26.278Z,23.21
2023-05-22T08:48:56.674Z,23.48
2023-05-22T08:51:28.045Z,23.56
2023-05-22T08:53:57.410Z,23.49
2023-05-22T08:56:26.783Z,23.46
2023-05-22T08:58:58.579Z,23.69
2023-05-22T09:01:26.375Z,23.70
2023-05-22T09:03:54.015Z,23.82
2023-05-22T09:06:21.617Z,23.91
2023-05-22T09:08:51.403Z,23.78
2023-05-22T09:11:19.252Z,23.80
2023-05-22T09:13:46.832Z,24.01
2023-05-22T09:16:16.469Z,24.08
2023-05-22T09:18:44.239Z,24.08
2023-05-22T09:21:28.878Z,24.18
2023-05-22T09:24:01.026Z,24.25
2023-05-22T09:26:29.124Z,24.29
2023-05-22T09:28:57.080Z,24.26
2023-05-22T09:31:26.126Z,24.26
2023-05-22T09:33:54.298Z,24.35
2023-05-22T09:36:22.020Z,24.33
2023-05-22T09:38:49.649Z,24.54
2023-05-22T09:41:22.140Z,24.50
2023-05-22T09:43:51.253Z,24.57
2023-05-22T09:46:18.842Z,24.63
2023-05-22T09:48:52.384Z,24.69
2023-05-22T09:51:21.060Z,24.75
2023-05-22T09:53:49.950Z,24.96
2023-05-22T09:56:30.757Z,25.09
2023-05-22T09:59:06.614Z,25.16
2023-05-22T10:01:34.790Z,25.21
2023-05-22T10:04:03.825Z,25.15
2023-05-22T10:06:33.893Z,25.19
2023-05-22T10:09:05.865Z,25.28
2023-05-22T10:11:34.081Z,25.23
2023-05-22T10:14:02.757Z,25.25
2023-05-22T10:16:31.216Z,25.32
2023-05-22T10:18:59.096Z,25.40
2023-05-22T10:21:29.233Z,25.18
2023-05-22T10:23:56.811Z,25.27
2023-05-22T10:26:24.917Z,25.51
2023-05-22T10:28:54.473Z,25.56
2023-05-22T10:31:28.212Z,25.75
2023-05-22T10:33:58.361Z,25.82
2023-05-22T10:36:38.196Z,25.93
2023-05-22T10:39:13.466Z,25.94
2023-05-22T10:41:41.209Z,25.90
2023-05-22T10:44:08.724Z,25.87
2023-05-22T10:46:37.312Z,25.80
2023-05-22T10:49:04.850Z,25.86
2023-05-22T10:51:35.233Z,26.05
2023-05-22T10:54:05.183Z,25.98
2023-05-22T10:56:36.203Z,26.11
2023-05-22T10:59:07.314Z,26.25
2023-05-22T11:01:37.844Z,26.47
2023-05-22T11:04:12.539Z,26.43
2023-05-22T11:06:42.476Z,26.48
2023-05-22T11:09:29.112Z,26.33
2023-05-22T11:12:16.896Z,26.18
2023-05-22T11:14:48.559Z,26.02
2023-05-22T11:17:18.776Z,26.09
2023-05-22T11:19:50.175Z,26.17
2023-05-22T11:22:19.804Z,26.35
2023-05-22T11:24:47.358Z,26.41
2023-05-22T11:27:15.131Z,26.52
2023-05-22T11:29:44.394Z,26.53
2023-05-22T11:32:12.069Z,26.53
2023-05-22T11:34:40.635Z,26.65
2023-05-22T11:37:08.493Z,26.64
2023-05-22T11:39:37.348Z,26.78
2023-05-22T11:42:05.318Z,26.92
2023-05-22T11:44:32.869Z,26.83
2023-05-22T11:47:00.643Z,26.99
2023-05-22T11:49:28.966Z,27.08
2023-05-22T11:51:56.475Z,27.16
2023-05-22T11:54:23.979Z,27.29
2023-05-22T11:56:52.906Z,27.30
2023-05-22T11:59:22.229Z,27.20
2023-05-22T12:01:50.439Z,27.00
2023-05-22T12:04:18.082Z,27.00
2023-05-22T12:06:45.762Z,26.78
2023-05-22T12:09:13.341Z,26.67
2023-05-22T12:11:40.948Z,26.96
2023-05-22T12:14:12.570Z,27.05
2023-05-22T12:16:40.675Z,27.09
2023-05-22T12:19:08.811Z,27.28
2023-05-22T12:21:36.634Z,27.26
2023-05-22T12:24:05.669Z,27.22
2023-05-22T12:26:33.693Z,27.22
2023-05-22T12:29:01.408Z,27.11
2023-05-22T12:31:35.774Z,27.32
2023-05-22T12:34:05.205Z,27.29
2023-05-22T12:36:34.845Z,27.40
2023-05-22T12:39:03.653Z,27.24
2023-05-22T12:41:31.181Z,27.12
2023-05-22T12:43:58.704Z,27.29
2023-05-22T12:46:26.264Z,27.54
2023-05-22T12:48:55.377Z,27.34
2023-05-22T12:51:24.047Z,27.60
2023-05-22T12:53:51.604Z,27.63
2023-05-22T12:56:19.150Z,27.57
2023-05-22T12:58:46.678Z,27.70
2023-05-22T13:01:14.319Z,27.74
2023-05-22T13:03:41.926Z,27.86
2023-05-22T13:06:12.199Z,27.94
2023-05-22T13:08:39.759Z,28.02
2023-05-22T13:11:07.304Z,28.20
2023-05-22T13:13:34.871Z,28.18
2023-05-22T13:16:02.725Z,27.85
2023-05-22T13:18:30.517Z,28.18
2023-05-22T13:20:59.952Z,28.17
2023-05-22T13:23:28.909Z,28.33
2023-05-22T13:25:56.426Z,28.25
2023-05-22T13:28:23.979Z,28.32
2023-05-22T13:30:51.459Z,28.38
2023-05-22T13:33:18.991Z,28.36
2023-05-22T13:35:46.578Z,28.34
2023-05-22T13:38:14.116Z,28.35
2023-05-22T13:40:42.983Z,28.13
2023-05-22T13:43:10.500Z,28.21
2023-05-22T13:45:38.222Z,28.21
2023-05-22T13:48:05.993Z,28.16
2023-05-22T13:50:33.521Z,28.30
2023-05-22T13:53:01.073Z,28.10
2023-05-22T13:55:28.721Z,27.98
2023-05-22T13:57:57.585Z,28.33
2023-05-22T14:00:25.195Z,28.21
2023-05-22T14:02:52.861Z,28.28
2023-05-22T14:05:20.763Z,28.39
2023-05-22T14:07:48.304Z,28.60
2023-05-22T14:10:16.089Z,28.75
2023-05-22T14:12:43.608Z,28.76
2023-05-22T14:15:12.863Z,28.43
2023-05-22T14:17:40.351Z,28.58
2023-05-22T14:20:08.819Z,28.22
2023-05-22T14:22:47.901Z,28.24
2023-05-22T14:25:23.797Z,28.33
2023-05-22T14:27:51.353Z,28.45
2023-05-22T14:30:20.315Z,28.59
2023-05-22T14:32:48.671Z,28.55
2023-05-22T14:35:16.526Z,28.68
2023-05-22T14:37:44.749Z,28.73
2023-05-22T14:40:12.654Z,28.67
2023-05-22T14:42:40.166Z,28.60
2023-05-22T14:45:08.595Z,28.32
2023-05-22T14:47:37.457Z,28.02
2023-05-22T14:50:18.175Z,27.54
2023-05-22T14:52:47.001Z,27.78
2023-05-22T14:55:14.521Z,27.55
2023-05-22T14:57:42.042Z,27.45
2023-05-22T15:00:10.833Z,27.39
2023-05-22T15:02:40.100Z,27.12
2023-05-22T15:05:08.349Z,27.00
2023-05-22T15:07:43.973Z,27.09
2023-05-22T15:10:12.968Z,26.77
2023-05-22T15:12:40.762Z,26.67
2023-05-22T15:15:09.566Z,26.27
2023-05-22T15:17:37.154Z,26.30
2023-05-22T15:20:07.624Z,26.33
2023-05-22T15:22:35.186Z,25.99
2023-05-22T15:25:06.215Z,26.04
2023-05-22T15:27:34.569Z,26.18
2023-05-22T15:30:02.324Z,26.31
2023-05-22T15:32:30.656Z,26.47
2023-05-22T15:34:58.519Z,26.65
2023-05-22T15:37:29.164Z,26.81
2023-05-22T15:39:58.383Z,26.83
2023-05-22T15:42:25.908Z,26.84
2023-05-22T15:44:53.450Z,27.18
2023-05-22T15:47:21.039Z,27.39
2023-05-22T15:49:48.588Z,27.14
2023-05-22T15:52:16.315Z,27.45
2023-05-22T15:54:45.196Z,27.54
2023-05-22T15:57:12.692Z,27.67
2023-05-22T15:59:40.270Z,27.76
2023-05-22T16:02:08.428Z,27.62
2023-05-22T16:04:36.100Z,27.22
2023-05-22T16:07:03.788Z,27.05
2023-05-22T16:09:32.756Z,26.89
2023-05-22T16:12:01.893Z,26.84
2023-05-22T16:14:29.464Z,26.60
2023-05-22T16:16:57.614Z,26.48
2023-05-22T16:19:25.229Z,26.60
2023-05-22T16:21:52.847Z,26.59
2023-05-22T16:24:20.415Z,26.53
2023-05-22T16:26:47.956Z,26.91
2023-05-22T16:29:20.343Z,27.02
2023-05-22T16:31:47.892Z,27.23
2023-05-22T16:34:15.496Z,27.10
2023-05-22T16:36:43.146Z,27.16
2023-05-22T16:39:10.833Z,26.74
2023-05-22T16:41:38.679Z,26.25
2023-05-22T16:44:06.276Z,26.30
2023-05-22T16:46:35.327Z,26.41
2023-05-22T16:49:03.030Z,26.30
2023-05-22T16:51:30.812Z,26.23
2023-05-22T16:53:58.336Z,26.30
2023-05-22T16:56:25.948Z,26.04
2023-05-22T16:58:53.453Z,26.17
2023-05-22T17:01:21.833Z,26.03
2023-05-22T17:03:50.969Z,25.97
2023-05-22T17:06:20.926Z,25.85
2023-05-22T17:08:48.792Z,25.78
2023-05-22T17:11:16.334Z,25.57
2023-05-22T17:13:43.956Z,24.89
2023-05-22T17:16:11.492Z,24.98
2023-05-22T17:18:39.078Z,24.89
2023-05-22T17:21:09.069Z,25.04
2023-05-22T17:23:37.233Z,24.52
2023-05-22T17:26:05.003Z,24.50
2023-05-22T17:28:32.628Z,24.75
2023-05-22T17:31:01.607Z,24.25
2023-05-22T17:33:29.253Z,24.46
2023-05-22T17:35:56.799Z,24.14
2023-05-22T17:38:26.076Z,23.72
2023-05-22T17:40:53.772Z,23.41
2023-05-22T17:43:21.465Z,23.09
2023-05-22T17:45:50.715Z,22.61
2023-05-22T17:48:23.313Z,22.11
2023-05-22T17:50:51.991Z,22.34
2023-05-22T17:53:20.573Z,22.40
2023-05-22T17:55:52.157Z,21.84
2023-05-22T17:58:20.490Z,21.44
2023-05-22T18:00:48.932Z,21.60
2023-05-22T18:03:20.121Z,21.13
2023-05-22T18:05:48.223Z,20.97
2023-05-22T18:08:16.004Z,21.02
2023-05-22T18:10:43.753Z,20.96
2023-05-22T18:13:12.688Z,21.07
2023-05-22T18:15:40.645Z,21.16
2023-05-22T18:18:09.555Z,21.22
2023-05-22T18:20:38.755Z,21.09
2023-05-22T18:23:06.474Z,21.01
2023-05-22T18:25:33.996Z,20.89
2023-05-22T18:28:01.534Z,21.01
2023-05-22T18:30:30.496Z,21.27
2023-05-22T18:32:58.115Z,21.49
2023-05-22T18:35:25.791Z,21.45
2023-05-22T18:37:53.562Z,21.91
2023-05-22T18:40:21.161Z,22.11
2023-05-22T18:42:48.719Z,22.14
2023-05-22T18:45:16.304Z,21.92
2023-05-22T18:47:45.222Z,21.55
2023-05-22T18:50:13.301Z,21.35
2023-05-22T18:55:09.092Z,20.94
2023-05-22T18:57:36.869Z,20.64
2023-05-22T19:00:04.913Z,20.48
2023-05-22T19:02:32.473Z,20.56
2023-05-22T19:05:01.472Z,20.31
2023-05-22T19:07:29.074Z,20.30
2023-05-22T19:09:56.604Z,20.23
2023-05-22T19:12:24.683Z,20.22
2023-05-22T19:14:52.451Z,20.08
2023-05-22T19:17:19.978Z,19.99
2023-05-22T19:19:47.539Z,19.91
2023-05-22T19:22:18.070Z,19.88
2023-05-22T19:24:45.747Z,19.96
2023-05-22T19:27:13.328Z,19.96
2023-05-22T19:29:40.875Z,20.05
2023-05-22T19:32:08.510Z,19.99
2023-05-22T19:34:36.163Z,20.07
2023-05-22T19:37:03.874Z,19.76
2023-05-22T19:39:32.889Z,19.82
2023-05-22T19:42:00.579Z,20.14
2023-05-22T19:44:28.064Z,20.07
2023-05-22T19:46:56.582Z,20.14
2023-05-22T19:49:24.225Z,20.11
2023-05-22T19:51:53.028Z,19.97
2023-05-22T19:54:22.367Z,20.09
2023-05-22T19:56:51.270Z,20.02
2023-05-22T19:59:18.828Z,19.88
2023-05-22T20:01:46.511Z,19.61
2023-05-22T20:04:14.298Z,19.41
2023-05-22T20:06:42.120Z,19.42
2023-05-22T20:09:10.091Z,19.45
2023-05-22T20:11:37.903Z,19.45
2023-05-22T20:14:07.593Z,19.57
2023-05-22T20:16:35.225Z,19.57
2023-05-22T20:19:03.761Z,19.60
2023-05-22T20:21:32.096Z,19.65
2023-05-22T20:23:59.650Z,19.72
2023-05-22T20:26:27.638Z,19.71
2023-05-22T20:28:55.221Z,19.75
2023-05-22T20:31:24.148Z,19.87
2023-05-22T20:33:51.671Z,19.81
2023-05-22T20:36:19.201Z,19.86
2023-05-22T20:38:46.721Z,19.99
2023-05-22T20:41:14.228Z,20.06
2023-05-22T20:43:43.205Z,20.01
2023-05-22T20:46:11.365Z,19.76
2023-05-22T20:48:46.651Z,19.76
2023-05-22T20:51:15.516Z,19.67
2023-05-22T20:53:43.049Z,19.81
2023-05-22T20:56:10.625Z,19.57
2023-05-22T20:58:39.174Z,19.54
2023-05-22T21:01:06.976Z,19.72
2023-05-22T21:03:34.491Z,19.64
2023-05-22T21:06:03.544Z,19.54
2023-05-22T21:08:31.111Z,19.56
2023-05-22T21:10:58.648Z,19.62
2023-05-22T21:13:26.180Z,19.57
2023-05-22T21:15:53.749Z,19.51
2023-05-22T21:18:21.939Z,19.66
2023-05-22T21:20:49.477Z,19.67
2023-05-22T21:23:18.341Z,19.53
2023-05-22T21:25:45.867Z,19.75
2023-05-22T21:28:13.486Z,19.87
2023-05-22T21:30:41.473Z,19.81
2023-05-22T21:33:09.273Z,19.71
2023-05-22T21:35:37.064Z,19.70
2023-05-22T21:38:04.585Z,19.80
2023-05-22T21:40:33.456Z,19.70
2023-05-22T21:43:01.023Z,19.65
2023-05-22T21:45:28.593Z,19.69
2023-05-22T21:47:56.193Z,19.55
2023-05-22T21:50:23.726Z,19.64
2023-05-22T21:52:51.287Z,19.51
2023-05-22T21:55:18.757Z,19.44
2023-05-22T21:57:47.650Z,19.40
2023-05-22T22:00:17.124Z,19.46
2023-05-22T22:02:44.737Z,19.46
2023-05-22T22:05:12.556Z,19.44
2023-05-22T22:07:40.077Z,19.38
2023-05-22T22:10:08.632Z,19.40
2023-05-22T22:12:36.160Z,19.33
2023-05-22T22:15:05.490Z,19.33
2023-05-22T22:17:34.759Z,19.26
2023-05-22T22:20:02.465Z,19.21
2023-05-22T22:22:30.119Z,19.29
2023-05-22T22:24:57.698Z,19.29
2023-05-22T22:27:25.449Z,19.19
2023-05-22T22:29:52.993Z,19.16
2023-05-22T22:32:21.891Z,19.17
2023-05-22T22:34:53.618Z,19.11
2023-05-22T22:37:21.924Z,19.03
2023-05-22T22:39:49.442Z,19.16
2023-05-22T22:42:16.940Z,19.24
2023-05-22T22:44:44.551Z,19.19
2023-05-22T22:47:12.322Z,19.36
2023-05-22T22:49:41.284Z,19.21
2023-05-22T22:52:08.780Z,19.10
2023-05-22T22:54:36.372Z,18.85
2023-05-22T22:57:04.026Z,18.93
2023-05-22T22:59:31.764Z,18.91
2023-05-22T23:01:59.550Z,18.89
2023-05-22T23:04:29.517Z,18.66
2023-05-22T23:06:58.561Z,18.74
2023-05-22T23:09:26.315Z,18.66
2023-05-22T23:11:53.814Z,18.67
2023-05-22T23:14:21.344Z,18.75
2023-05-22T23:16:48.994Z,18.84
2023-05-22T23:19:16.498Z,18.76
2023-05-22T23:21:44.104Z,18.81
2023-05-22T23:24:12.968Z,18.89
2023-05-22T23:26:40.520Z,18.92
2023-05-22T23:29:08.147Z,18.93
2023-05-22T23:31:36.480Z,18.87
2023-05-22T23:34:04.073Z,18.92
2023-05-22T23:36:32.515Z,19.06
2023-05-22T23:39:00.033Z,19.21
2023-05-22T23:41:28.958Z,19.06
2023-05-22T23:43:56.589Z,19.08
2023-05-22T23:46:24.276Z,19.01
2023-05-22T23:48:52.074Z,18.95
2023-05-22T23:51:19.767Z,18.80
2023-05-22T23:53:47.263Z,18.75
2023-05-22T23:56:14.805Z,18.85
2023-05-22T23:58:43.614Z,18.77
